Time;durP1;ratioP1;P1;durP2;ratioP2;P2;SDS_P1;SDS_P2;PMS_P1;PMS_P2;Temp;Humidity;BMP_temperature;BMP_pressure;BME280_temperature;BME280_humidity;BME280_pressure;Samples;Min_cycle;Max_cycle;Signal;HPM_P1;HPM_P2
2021/03/21 00:00:30;;;;;;;14.13;7.55;;;6.10;95.50;;;;;;5007840;28;20038;-79
2021/03/21 00:02:56;;;;;;;14.10;7.93;;;6.10;95.80;;;;;;5016306;28;20056;-79
2021/03/21 00:05:22;;;;;;;11.02;8.50;;;6.10;95.50;;;;;;5021514;28;20034;-77
2021/03/21 00:07:56;;;;;;;16.75;8.88;;;6.20;95.60;;;;;;5018158;28;20038;-80
2021/03/21 00:10:23;;;;;;;15.32;8.98;;;6.20;95.60;;;;;;5007905;28;20033;-80
2021/03/21 00:12:48;;;;;;;16.23;8.20;;;6.20;95.50;;;;;;4976109;28;20060;-77
2021/03/21 00:15:15;;;;;;;13.23;9.23;;;6.20;95.50;;;;;;5018969;28;20042;-81
2021/03/21 00:17:41;;;;;;;14.50;8.95;;;6.20;95.50;;;;;;5006384;28;20033;-82
2021/03/21 00:20:08;;;;;;;17.90;9.15;;;6.20;95.50;;;;;;5020393;28;20041;-80
2021/03/21 00:22:34;;;;;;;17.27;8.57;;;6.20;95.60;;;;;;5023482;28;20037;-80
2021/03/21 00:25:00;;;;;;;13.85;9.05;;;6.20;95.60;;;;;;5008371;28;20033;-79
2021/03/21 00:27:25;;;;;;;16.50;9.88;;;6.20;95.50;;;;;;5020234;28;20034;-80
2021/03/21 00:29:51;;;;;;;20.60;9.90;;;6.20;95.50;;;;;;5018916;28;20116;-80
2021/03/21 00:32:17;;;;;;;17.83;10.52;;;6.20;95.50;;;;;;5006755;28;20041;-81
2021/03/21 00:34:43;;;;;;;20.00;10.63;;;6.20;95.80;;;;;;5020661;28;20363;-80
2021/03/21 00:37:09;;;;;;;21.13;10.82;;;6.20;95.50;;;;;;5020207;28;20036;-79
2021/03/21 00:39:35;;;;;;;19.00;11.55;;;6.30;95.60;;;;;;5022955;28;20061;-81
2021/03/21 00:42:01;;;;;;;24.67;12.05;;;6.30;95.60;;;;;;5037666;28;20029;-80
2021/03/21 00:44:26;;;;;;;22.63;12.20;;;6.20;95.50;;;;;;5016993;28;20037;-79
2021/03/21 00:46:52;;;;;;;23.58;12.20;;;6.30;95.60;;;;;;5013057;28;20096;-80
2021/03/21 00:49:18;;;;;;;23.25;12.82;;;6.30;95.60;;;;;;5028329;28;20116;-81
2021/03/21 00:51:44;;;;;;;26.23;13.38;;;6.20;95.60;;;;;;4984302;28;20033;-80
2021/03/21 00:54:09;;;;;;;29.85;14.05;;;6.30;95.60;;;;;;4988371;28;20045;-81
2021/03/21 00:56:39;;;;;;;26.77;13.30;;;6.30;95.60;;;;;;5024349;28;20053;-80
2021/03/21 00:59:05;;;;;;;30.27;13.27;;;6.30;95.60;;;;;;5019655;28;20040;-81
2021/03/21 01:01:33;;;;;;;28.70;13.43;;;6.30;95.60;;;;;;5006002;28;20053;-80
2021/03/21 01:03:59;;;;;;;29.90;13.48;;;6.30;95.60;;;;;;5008116;28;20065;-82
2021/03/21 01:06:26;;;;;;;30.52;13.70;;;6.30;95.60;;;;;;5020882;28;20240;-80
2021/03/21 01:09:02;;;;;;;27.73;12.95;;;6.30;95.60;;;;;;5027300;28;20049;-80
2021/03/21 01:11:31;;;;;;;24.33;11.60;;;6.30;95.60;;;;;;5026353;28;20026;-81
2021/03/21 01:13:57;;;;;;;22.45;12.35;;;6.30;95.60;;;;;;5027584;28;20582;-77
2021/03/21 01:16:30;;;;;;;29.33;12.23;;;6.30;95.50;;;;;;5028447;28;20041;-79
2021/03/21 01:18:57;;;;;;;22.08;11.48;;;6.30;95.50;;;;;;5021585;28;20033;-79
2021/03/21 01:21:25;;;;;;;21.35;10.80;;;6.30;95.60;;;;;;5004302;28;20057;-81
2021/03/21 01:23:51;;;;;;;25.42;11.57;;;6.30;95.50;;;;;;5008414;28;20049;-80
2021/03/21 01:26:20;;;;;;;22.75;10.95;;;6.30;95.50;;;;;;5020640;28;20040;-80
2021/03/21 01:28:47;;;;;;;24.75;10.68;;;6.40;95.50;;;;;;5034302;28;20052;-79
2021/03/21 01:31:18;;;;;;;22.83;11.00;;;6.30;95.50;;;;;;5015574;28;20053;-79
2021/03/21 01:33:45;;;;;;;20.85;9.98;;;6.30;95.50;;;;;;5032930;28;20370;-79
2021/03/21 01:36:24;;;;;;;28.85;11.13;;;6.30;95.50;;;;;;5032191;28;20317;-81
2021/03/21 01:38:52;;;;;;;21.75;10.60;;;6.30;95.50;;;;;;5032775;28;20037;-82
2021/03/21 01:41:23;;;;;;;21.90;11.13;;;6.30;95.50;;;;;;5013644;28;20693;-80
2021/03/21 01:43:49;;;;;;;29.05;11.20;;;6.40;95.50;;;;;;5040882;28;20133;-77
2021/03/21 01:46:36;;;;;;;27.08;11.80;;;6.40;95.50;;;;;;5018878;28;20083;-81
2021/03/21 01:49:22;;;;;;;30.27;11.90;;;6.30;95.50;;;;;;5030778;28;20033;-81
2021/03/21 01:51:50;;;;;;;26.40;11.00;;;6.30;95.60;;;;;;5035219;28;20396;-79
2021/03/21 01:54:20;;;;;;;31.48;12.50;;;6.40;95.60;;;;;;5039792;28;20071;-81
2021/03/21 01:56:47;;;;;;;26.73;12.10;;;6.30;95.50;;;;;;5031370;28;20037;-80
2021/03/21 01:59:19;;;;;;;29.52;12.57;;;6.30;95.60;;;;;;5027736;28;20048;-78
2021/03/21 02:01:45;;;;;;;24.45;11.13;;;6.30;95.60;;;;;;5025921;28;20049;-78
2021/03/21 02:04:11;;;;;;;25.77;11.52;;;6.30;95.60;;;;;;5025902;28;20783;-80
2021/03/21 02:06:37;;;;;;;27.95;11.75;;;6.30;95.60;;;;;;5021792;28;20105;-80
2021/03/21 02:09:06;;;;;;;28.27;11.98;;;6.30;95.60;;;;;;5022455;28;20102;-79
2021/03/21 02:11:46;;;;;;;23.10;10.63;;;6.30;95.70;;;;;;5019210;28;20021;-78
2021/03/21 02:14:31;;;;;;;22.00;10.13;;;6.30;95.60;;;;;;5028309;28;20060;-78
2021/03/21 02:17:06;;;;;;;19.10;11.07;;;6.30;95.70;;;;;;5055244;28;20034;-77
2021/03/21 02:20:03;;;;;;;20.65;9.10;;;6.30;95.70;;;;;;5015656;28;20349;-79
2021/03/21 02:22:34;;;;;;;15.90;8.55;;;6.30;95.70;;;;;;5045841;28;20376;-79
2021/03/21 02:25:31;;;;;;;16.88;8.90;;;6.30;95.70;;;;;;5020228;28;20036;-78
2021/03/21 02:28:42;;;;;;;17.65;7.85;;;6.30;95.70;;;;;;5032246;28;21715;-78
2021/03/21 02:31:38;;;;;;;16.80;6.63;;;6.30;95.60;;;;;;5029632;28;20029;-79
2021/03/21 02:34:31;;;;;;;20.27;7.45;;;6.30;95.60;;;;;;5035807;28;20105;-78
2021/03/21 02:37:17;;;;;;;18.38;6.30;;;6.20;95.50;;;;;;5003263;28;20069;-79
2021/03/21 02:40:11;;;;;;;16.33;6.32;;;6.20;95.50;;;;;;5040467;28;20298;-79
2021/03/21 02:42:42;;;;;;;16.13;6.65;;;6.20;95.50;;;;;;5052262;28;20041;-79
2021/03/21 02:45:17;;;;;;;17.73;7.05;;;6.20;95.50;;;;;;5031592;28;20102;-77
2021/03/21 02:47:45;;;;;;;16.98;6.75;;;6.10;95.50;;;;;;5034038;28;20037;-78
2021/03/21 02:50:29;;;;;;;19.75;6.85;;;6.20;95.50;;;;;;5031246;28;20036;-77
2021/03/21 02:53:04;;;;;;;18.17;7.13;;;6.10;95.50;;;;;;5025898;28;20110;-76
2021/03/21 02:55:35;;;;;;;20.38;7.20;;;6.10;95.50;;;;;;5029760;28;20048;-78
2021/03/21 02:58:12;;;;;;;19.75;6.60;;;6.10;95.50;;;;;;5016527;28;20332;-79
2021/03/21 03:00:45;;;;;;;21.35;6.72;;;6.10;95.50;;;;;;5018662;28;21432;-79
2021/03/21 03:03:15;;;;;;;20.65;6.45;;;6.10;95.50;;;;;;5020229;28;20034;-78
2021/03/21 03:05:49;;;;;;;24.63;8.35;;;6.10;95.50;;;;;;5015724;28;20479;-79
2021/03/21 03:08:32;;;;;;;15.55;5.93;;;6.10;95.50;;;;;;5029032;28;20038;-79
2021/03/21 03:11:19;;;;;;;20.90;6.28;;;6.10;95.50;;;;;;5037179;28;20029;-79
2021/03/21 03:13:54;;;;;;;17.40;6.43;;;6.10;95.50;;;;;;5037215;28;20038;-78
2021/03/21 03:16:51;;;;;;;16.35;5.72;;;6.10;95.50;;;;;;5037090;28;20049;-80
2021/03/21 03:19:29;;;;;;;17.90;6.40;;;6.10;95.50;;;;;;5038875;28;20075;-79
2021/03/21 03:22:12;;;;;;;15.63;5.78;;;6.10;95.40;;;;;;5038982;28;21194;-78
2021/03/21 03:24:44;;;;;;;21.55;5.88;;;6.10;95.50;;;;;;5034199;28;20044;-80
2021/03/21 03:27:23;;;;;;;20.03;6.30;;;6.00;95.40;;;;;;5034159;28;20033;-79
2021/03/21 03:29:56;;;;;;;22.80;6.47;;;6.10;95.40;;;;;;5035082;28;20056;-80
2021/03/21 03:32:24;;;;;;;24.33;6.57;;;6.00;95.40;;;;;;5030290;28;20417;-80
2021/03/21 03:34:56;;;;;;;20.98;5.82;;;6.00;95.40;;;;;;5004441;28;20044;-78
2021/03/21 03:37:26;;;;;;;18.88;6.75;;;6.00;95.40;;;;;;5012787;28;20103;-80
2021/03/21 03:39:52;;;;;;;23.23;6.28;;;6.00;95.50;;;;;;5016222;28;20048;-79
2021/03/21 03:42:57;;;;;;;22.00;5.50;;;6.00;95.50;;;;;;4997261;28;20042;-79
2021/03/21 03:45:36;;;;;;;18.88;5.10;;;6.00;95.50;;;;;;4996846;28;20115;-78
2021/03/21 03:48:08;;;;;;;27.02;5.93;;;6.00;95.50;;;;;;5013415;28;20092;-77
2021/03/21 03:50:49;;;;;;;21.10;5.60;;;6.00;95.50;;;;;;5041394;28;20059;-79
2021/03/21 03:53:52;;;;;;;21.88;5.15;;;6.00;95.50;;;;;;5023288;28;20084;-80
2021/03/21 03:56:20;;;;;;;;;;;6.00;95.50;;;;;;5019470;28;20041;-79
2021/03/21 03:59:05;;;;;;;24.65;4.95;;;6.00;95.40;;;;;;5016393;28;19972;-79
2021/03/21 04:02:00;;;;;;;21.17;4.82;;;6.00;95.40;;;;;;5020128;28;20476;-80
2021/03/21 04:04:57;;;;;;;21.33;4.15;;;6.00;95.40;;;;;;5015651;28;20423;-80
2021/03/21 04:07:51;;;;;;;20.48;4.28;;;6.00;95.40;;;;;;5023856;28;20407;-78
2021/03/21 04:10:25;;;;;;;21.05;3.72;;;6.00;95.40;;;;;;5024813;28;20053;-80
2021/03/21 04:13:10;;;;;;;17.10;3.42;;;6.00;95.40;;;;;;5027561;28;20041;-79
2021/03/21 04:15:42;;;;;;;19.55;3.95;;;6.00;95.50;;;;;;5026741;28;20029;-79
2021/03/21 04:18:12;;;;;;;21.92;3.80;;;6.00;95.40;;;;;;5031900;28;20140;-79
2021/03/21 04:20:47;;;;;;;22.40;4.18;;;6.00;95.50;;;;;;5014645;28;20030;-78
2021/03/21 04:23:24;;;;;;;19.80;3.40;;;6.00;95.50;;;;;;5017389;28;20033;-78
2021/03/21 04:25:58;;;;;;;23.08;3.80;;;6.00;95.50;;;;;;5025226;28;20034;-79
2021/03/21 04:28:32;;;;;;;15.02;2.83;;;6.00;95.50;;;;;;5023352;28;20029;-79
2021/03/21 04:31:03;;;;;;;26.27;4.30;;;6.00;95.50;;;;;;5033643;28;20042;-79
2021/03/21 04:33:33;;;;;;;17.02;3.08;;;6.00;95.40;;;;;;5033627;28;20483;-79
2021/03/21 04:36:09;;;;;;;20.08;3.13;;;6.00;95.40;;;;;;5025863;28;20037;-78
2021/03/21 04:39:05;;;;;;;20.30;3.08;;;6.00;95.40;;;;;;5021932;28;20041;-80
2021/03/21 04:41:39;;;;;;;33.78;3.80;;;6.00;95.40;;;;;;5024412;28;20042;-78
2021/03/21 04:44:10;;;;;;;33.17;3.40;;;6.00;95.40;;;;;;5016215;28;20177;-80
2021/03/21 04:46:48;;;;;;;25.55;3.55;;;5.90;95.30;;;;;;5015266;28;20052;-79
2021/03/21 04:49:16;;;;;;;20.38;3.25;;;5.90;95.20;;;;;;5026332;28;20048;-81
2021/03/21 04:51:45;;;;;;;23.60;3.70;;;5.90;95.20;;;;;;5029084;28;20120;-79
2021/03/21 04:54:17;;;;;;;19.50;2.60;;;5.90;95.20;;;;;;5011336;28;20045;-80
2021/03/21 04:56:52;;;;;;;15.85;2.35;;;5.90;95.10;;;;;;5015982;28;20045;-79
2021/03/21 04:59:25;;;;;;;22.60;2.70;;;5.90;95.10;;;;;;5009664;28;20144;-79
2021/03/21 05:01:57;;;;;;;14.52;1.90;;;5.80;95.00;;;;;;5025800;28;20045;-79
2021/03/21 05:04:27;;;;;;;20.67;2.40;;;5.80;94.90;;;;;;5007997;28;20140;-80
2021/03/21 05:06:58;;;;;;;19.38;2.72;;;5.90;94.90;;;;;;5018854;28;20025;-80
2021/03/21 05:09:33;;;;;;;22.20;2.95;;;5.80;94.70;;;;;;5022744;28;20037;-79
2021/03/21 05:12:12;;;;;;;17.90;2.15;;;5.80;94.80;;;;;;5028107;28;20029;-81
2021/03/21 05:14:48;;;;;;;19.95;2.42;;;5.80;94.60;;;;;;5016314;28;21474;-80
2021/03/21 05:17:41;;;;;;;20.70;2.42;;;5.80;94.50;;;;;;5020595;28;20107;-80
2021/03/21 05:20:30;;;;;;;18.48;2.03;;;5.70;94.40;;;;;;5030524;28;22751;-80
2021/03/21 05:23:21;;;;;;;24.25;2.65;;;5.70;94.30;;;;;;5020364;28;20048;-79
2021/03/21 05:25:53;;;;;;;15.68;2.00;;;5.70;94.30;;;;;;5018315;28;20319;-78
2021/03/21 05:28:49;;;;;;;16.10;2.70;;;5.70;94.20;;;;;;5014605;28;20637;-80
2021/03/21 05:31:15;;;;;;;15.40;2.17;;;5.60;94.00;;;;;;5002019;28;20061;-80
2021/03/21 05:33:41;;;;;;;23.88;3.22;;;5.70;94.00;;;;;;5025430;28;20105;-79
2021/03/21 05:36:24;;;;;;;20.67;2.88;;;5.70;94.00;;;;;;5028118;28;20041;-81
2021/03/21 05:38:57;;;;;;;24.88;3.05;;;5.70;94.00;;;;;;5026583;28;20438;-80
2021/03/21 05:41:34;;;;;;;26.73;3.35;;;5.70;94.00;;;;;;5029290;28;20039;-81
2021/03/21 05:44:49;;;;;;;23.40;2.88;;;5.70;94.00;;;;;;5025761;28;20124;-80
2021/03/21 05:47:37;;;;;;;17.92;3.30;;;5.70;94.00;;;;;;5016995;28;20046;-80
2021/03/21 05:50:41;;;;;;;21.45;3.03;;;5.60;93.90;;;;;;5020319;28;20075;-79
2021/03/21 05:53:44;;;;;;;23.65;2.65;;;5.60;93.80;;;;;;5014892;28;20038;-81
2021/03/21 05:56:28;;;;;;;20.60;2.35;;;5.60;93.70;;;;;;5014107;28;20045;-79
2021/03/21 05:59:24;;;;;;;24.40;3.20;;;5.70;93.80;;;;;;5029965;28;20034;-80
2021/03/21 06:02:02;;;;;;;30.42;3.70;;;5.70;93.60;;;;;;5013101;28;20030;-81
2021/03/21 06:04:47;;;;;;;23.00;2.95;;;5.60;93.60;;;;;;5012086;28;20046;-81
2021/03/21 06:07:37;;;;;;;32.63;3.88;;;5.70;93.60;;;;;;5015555;28;20490;-79
2021/03/21 06:10:21;;;;;;;22.50;2.72;;;5.60;93.60;;;;;;5015518;28;20077;-80
2021/03/21 06:13:00;;;;;;;21.98;3.63;;;5.70;93.50;;;;;;5027104;28;20174;-81
2021/03/21 06:15:53;;;;;;;25.38;3.30;;;5.70;93.50;;;;;;5013183;28;20038;-80
2021/03/21 06:18:35;;;;;;;32.55;3.88;;;5.70;93.20;;;;;;5004553;28;20042;-79
2021/03/21 06:21:29;;;;;;;27.23;3.42;;;5.70;93.40;;;;;;5020664;28;20025;-79
2021/03/21 06:24:18;;;;;;;39.35;3.65;;;5.70;93.30;;;;;;5014881;28;20769;-79
2021/03/21 06:27:04;;;;;;;32.83;4.57;;;5.70;93.10;;;;;;5014998;28;20040;-78
2021/03/21 06:29:51;;;;;;;31.75;3.65;;;5.70;93.50;;;;;;5014722;28;20039;-80
2021/03/21 06:32:36;;;;;;;30.52;3.72;;;5.70;93.00;;;;;;5019967;28;20116;-81
2021/03/21 06:35:05;;;;;;;38.38;4.40;;;5.80;92.80;;;;;;5024856;28;20064;-80
2021/03/21 06:37:48;;;;;;;32.63;4.65;;;5.80;92.80;;;;;;5019460;28;20041;-79
2021/03/21 06:41:05;;;;;;;37.13;4.15;;;5.80;92.70;;;;;;5017001;28;20030;-79
2021/03/21 06:44:06;;;;;;;30.48;4.22;;;5.80;92.40;;;;;;4989861;28;20456;-81
2021/03/21 06:47:14;;;;;;;27.48;3.72;;;5.80;92.40;;;;;;5032284;28;20053;-80
2021/03/21 06:49:49;;;;;;;34.35;4.82;;;5.80;92.40;;;;;;5016069;28;20038;-82
2021/03/21 06:52:37;;;;;;;39.20;5.53;;;5.80;92.30;;;;;;5022006;28;20045;-82
2021/03/21 06:55:11;;;;;;;35.05;4.13;;;5.80;92.30;;;;;;5020689;28;20388;-80
2021/03/21 06:58:06;;;;;;;39.22;4.70;;;5.90;92.50;;;;;;5022524;28;20029;-79
2021/03/21 07:00:53;;;;;;;43.67;5.57;;;5.80;92.20;;;;;;5018536;28;20166;-80
2021/03/21 07:03:59;;;;;;;36.80;5.00;;;5.90;92.20;;;;;;5018263;28;20543;-80
2021/03/21 07:06:51;;;;;;;41.08;5.30;;;5.90;91.80;;;;;;5016551;28;20046;-79
2021/03/21 07:09:45;;;;;;;31.48;4.60;;;5.90;91.40;;;;;;5006893;28;20057;-78
2021/03/21 07:12:56;;;;;;;37.50;5.78;;;5.80;91.50;;;;;;5016178;28;20068;-81
2021/03/21 07:15:40;;;;;;;44.67;6.38;;;5.80;91.30;;;;;;5001592;28;20585;-79
2021/03/21 07:18:47;;;;;;;34.33;5.15;;;5.80;91.40;;;;;;5017778;28;20662;-79
2021/03/21 07:21:34;;;;;;;43.08;6.22;;;5.80;91.20;;;;;;4966896;28;20423;-81
2021/03/21 07:24:21;;;;;;;39.58;5.45;;;5.90;91.40;;;;;;4990066;28;20046;-79
2021/03/21 07:27:24;;;;;;;35.25;5.13;;;5.90;91.20;;;;;;5004602;28;20050;-81
2021/03/21 07:30:26;;;;;;;42.63;5.85;;;5.90;90.80;;;;;;5015973;28;20092;-80
2021/03/21 07:32:59;;;;;;;31.55;5.05;;;6.00;91.00;;;;;;5021888;28;20041;-80
2021/03/21 07:35:36;;;;;;;34.55;4.80;;;6.00;91.10;;;;;;5015474;28;20057;-79
2021/03/21 07:38:35;;;;;;;42.33;5.72;;;6.00;91.00;;;;;;5012518;28;20496;-78
2021/03/21 07:41:36;;;;;;;43.38;5.40;;;6.10;91.00;;;;;;5010636;28;20129;-79
2021/03/21 07:44:08;;;;;;;44.25;5.20;;;6.10;90.90;;;;;;5019865;28;20052;-80
2021/03/21 07:47:00;;;;;;;46.30;6.35;;;6.10;90.80;;;;;;5023398;28;20073;-81
2021/03/21 07:50:07;;;;;;;41.97;5.90;;;6.20;90.40;;;;;;5032695;28;20113;-79
2021/03/21 07:52:47;;;;;;;42.08;6.78;;;6.20;90.20;;;;;;5025189;28;20041;-80
2021/03/21 07:55:24;;;;;;;34.88;5.68;;;6.20;90.30;;;;;;5023223;28;20041;-80
2021/03/21 07:58:00;;;;;;;50.83;6.30;;;6.30;90.30;;;;;;5032530;28;20033;-78
2021/03/21 08:00:25;;;;;;;50.83;6.65;;;6.30;90.70;;;;;;5027784;28;20037;-80
2021/03/21 08:03:22;;;;;;;44.25;5.57;;;6.30;90.10;;;;;;5032930;28;20510;-79
2021/03/21 08:05:56;;;;;;;56.70;6.47;;;6.30;89.90;;;;;;5028842;28;20124;-80
2021/03/21 08:08:26;;;;;;;50.53;6.35;;;6.40;90.00;;;;;;5026495;28;20037;-81
2021/03/21 08:10:58;;;;;;;38.58;6.18;;;6.40;89.60;;;;;;5026967;28;20120;-79
2021/03/21 08:13:44;;;;;;;46.20;5.95;;;6.40;90.20;;;;;;5015849;28;20040;-81
2021/03/21 08:16:18;;;;;;;43.42;6.53;;;6.50;89.90;;;;;;5026543;28;20038;-80
2021/03/21 08:18:46;;;;;;;43.17;6.07;;;6.50;90.10;;;;;;5019761;28;20112;-79
2021/03/21 08:21:25;;;;;;;50.15;7.45;;;6.50;89.20;;;;;;4998417;28;20046;-79
2021/03/21 08:23:53;;;;;;;41.75;4.85;;;6.50;89.50;;;;;;5026891;28;20099;-82
2021/03/21 08:26:32;;;;;;;39.20;6.72;;;6.60;89.20;;;;;;5020483;28;20388;-80
2021/03/21 08:29:06;;;;;;;40.25;5.95;;;6.60;89.10;;;;;;5010463;28;20045;-81
2021/03/21 08:31:36;;;;;;;45.00;5.85;;;6.60;88.60;;;;;;5024939;28;20501;-81
2021/03/21 08:34:37;;;;;;;40.03;7.03;;;6.70;88.70;;;;;;5027853;28;20048;-79
2021/03/21 08:37:28;;;;;;;46.47;5.80;;;6.70;88.50;;;;;;5028753;28;20061;-80
2021/03/21 08:40:15;;;;;;;45.58;6.60;;;6.80;88.70;;;;;;5022032;28;20045;-81
2021/03/21 08:42:43;;;;;;;47.55;6.47;;;6.90;88.00;;;;;;5021097;28;20248;-79
2021/03/21 08:45:42;;;;;;;41.55;6.40;;;6.90;87.70;;;;;;5030557;28;20033;-78
2021/03/21 08:48:10;;;;;;;38.25;5.60;;;6.90;86.70;;;;;;5007342;28;20535;-80
2021/03/21 08:50:43;;;;;;;40.20;6.63;;;7.00;88.00;;;;;;5039539;28;20057;-79
2021/03/21 08:53:41;;;;;;;40.60;6.40;;;7.00;87.00;;;;;;5031814;28;20029;-80
2021/03/21 08:56:18;;;;;;;38.28;6.15;;;7.00;86.70;;;;;;5019218;28;20141;-82
2021/03/21 08:58:53;;;;;;;52.22;7.97;;;7.10;86.40;;;;;;5032186;28;20042;-81
2021/03/21 09:01:25;;;;;;;43.17;6.05;;;7.10;85.50;;;;;;5034977;28;20064;-80
2021/03/21 09:04:07;;;;;;;41.97;5.80;;;7.10;85.20;;;;;;5025788;28;20037;-79
2021/03/21 09:06:36;;;;;;;38.23;5.53;;;7.10;86.20;;;;;;5019234;28;20068;-80
2021/03/21 09:09:21;;;;;;;42.78;5.63;;;7.10;85.20;;;;;;5033793;28;20084;-80
2021/03/21 09:11:50;;;;;;;51.35;7.20;;;7.20;85.00;;;;;;5030145;28;20034;-81
2021/03/21 09:14:32;;;;;;;41.53;6.30;;;7.20;85.30;;;;;;5030472;28;20049;-81
2021/03/21 09:17:00;;;;;;;42.60;5.63;;;7.30;85.70;;;;;;5029277;28;20029;-79
2021/03/21 09:19:35;;;;;;;36.05;5.97;;;7.30;84.60;;;;;;5009918;28;20043;-79
2021/03/21 09:22:30;;;;;;;37.15;5.72;;;7.30;84.60;;;;;;5030213;28;20065;-85
2021/03/21 09:25:11;;;;;;;44.60;6.25;;;7.40;83.70;;;;;;5030719;28;20107;-81
2021/03/21 09:27:40;;;;;;;35.15;6.13;;;7.40;84.30;;;;;;5030716;28;20707;-80
2021/03/21 09:30:42;;;;;;;35.38;5.45;;;7.40;83.40;;;;;;5029245;28;20970;-79
2021/03/21 09:33:13;;;;;;;44.42;6.68;;;7.50;82.40;;;;;;5016150;28;20076;-82
2021/03/21 09:35:56;;;;;;;38.08;6.70;;;7.50;82.50;;;;;;5018589;28;20117;-79
2021/03/21 09:38:26;;;;;;;39.67;5.60;;;7.50;81.90;;;;;;5013231;28;20542;-82
2021/03/21 09:40:55;;;;;;;44.38;6.50;;;7.50;82.40;;;;;;5014612;28;20037;-83
2021/03/21 09:43:26;;;;;;;43.10;6.50;;;7.50;82.00;;;;;;5020172;28;20581;-81
2021/03/21 09:46:14;;;;;;;41.58;6.90;;;7.50;81.50;;;;;;5020522;28;20704;-85
2021/03/21 09:48:53;;;;;;;43.47;6.53;;;7.60;82.10;;;;;;5013856;28;20040;-79
2021/03/21 09:52:02;;;;;;;46.78;6.10;;;7.60;81.30;;;;;;5018918;28;20042;-81
2021/03/21 09:54:41;;;;;;;49.45;6.97;;;7.60;81.70;;;;;;5012226;28;20073;-80
2021/03/21 09:57:35;;;;;;;48.60;6.28;;;7.60;82.10;;;;;;5002721;28;20042;-82
2021/03/21 10:00:06;;;;;;;51.60;7.57;;;7.70;82.60;;;;;;5013142;28;20269;-82
2021/03/21 10:02:45;;;;;;;49.75;6.28;;;7.70;82.40;;;;;;5014791;28;20037;-84
2021/03/21 10:05:59;;;;;;;51.05;7.70;;;7.80;83.20;;;;;;5015045;28;20030;-81
2021/03/21 10:08:33;;;;;;;;;;;7.90;80.80;;;;;;4980590;28;20069;-81
2021/03/21 10:11:03;;;;;;;40.13;6.13;;;7.80;80.80;;;;;;5016871;28;19947;-82
2021/03/21 10:13:33;;;;;;;44.25;6.60;;;7.80;81.90;;;;;;5017352;28;20061;-82
2021/03/21 10:16:26;;;;;;;42.17;6.07;;;7.80;81.90;;;;;;5012913;28;20053;-80
2021/03/21 10:19:03;;;;;;;39.47;6.32;;;7.80;80.70;;;;;;5015206;28;20607;-84
2021/03/21 10:21:32;;;;;;;43.75;6.57;;;7.70;80.60;;;;;;5012455;28;20045;-81
2021/03/21 10:23:59;;;;;;;44.15;6.50;;;7.70;80.60;;;;;;5013746;28;20042;-81
2021/03/21 10:26:28;;;;;;;42.08;5.70;;;7.60;80.90;;;;;;5014267;28;20129;-81
2021/03/21 10:28:59;;;;;;;49.88;7.25;;;7.60;80.80;;;;;;5013773;28;20064;-82
2021/03/21 10:31:33;;;;;;;47.65;6.32;;;7.50;81.20;;;;;;5011494;28;20041;-81
2021/03/21 10:34:02;;;;;;;45.95;6.93;;;7.60;80.90;;;;;;5009151;28;20382;-81
2021/03/21 10:36:40;;;;;;;50.38;6.47;;;7.60;80.70;;;;;;5025976;28;20068;-82
2021/03/21 10:39:24;;;;;;;52.00;7.20;;;7.60;80.80;;;;;;5028871;28;20029;-81
2021/03/21 10:42:01;;;;;;;46.65;6.50;;;7.70;80.20;;;;;;5014273;28;20037;-82
2021/03/21 10:44:30;;;;;;;47.05;6.63;;;7.70;79.80;;;;;;5031874;28;20037;-80
2021/03/21 10:46:57;;;;;;;53.67;6.75;;;7.70;79.20;;;;;;5029366;28;20035;-81
2021/03/21 10:49:50;;;;;;;37.80;5.93;;;7.70;78.60;;;;;;4992263;28;20767;-80
2021/03/21 10:52:22;;;;;;;45.58;6.68;;;7.70;78.30;;;;;;5032968;28;20030;-81
2021/03/21 10:55:14;;;;;;;43.80;6.15;;;7.60;78.60;;;;;;5031977;28;20049;-81
2021/03/21 10:57:48;;;;;;;44.45;6.97;;;7.60;79.10;;;;;;5007219;28;20037;-81
2021/03/21 11:00:31;;;;;;;42.03;7.07;;;7.60;79.00;;;;;;5015321;28;20060;-80
2021/03/21 11:03:00;;;;;;;49.00;7.22;;;7.70;79.50;;;;;;4985624;28;20439;-80
2021/03/21 11:05:44;;;;;;;43.42;6.03;;;7.70;79.50;;;;;;5008053;28;20046;-80
2021/03/21 11:08:13;;;;;;;41.78;6.65;;;7.80;79.30;;;;;;4994538;28;20472;-80
2021/03/21 11:10:51;;;;;;;37.92;6.35;;;7.80;79.00;;;;;;5011733;28;20132;-80
2021/03/21 11:13:31;;;;;;;49.50;6.93;;;7.80;77.50;;;;;;5015649;28;20587;-79
2021/03/21 11:15:58;;;;;;;42.85;6.45;;;7.80;78.10;;;;;;5010654;28;20548;-83
2021/03/21 11:18:33;;;;;;;43.30;6.75;;;7.80;78.00;;;;;;5004797;28;20046;-81
2021/03/21 11:21:17;;;;;;;44.05;6.13;;;7.80;78.10;;;;;;5008667;28;20116;-84
2021/03/21 11:23:43;;;;;;;43.13;6.57;;;7.70;76.80;;;;;;5017942;28;20559;-83
2021/03/21 11:26:24;;;;;;;41.22;6.18;;;7.70;77.80;;;;;;5008139;28;20036;-78
2021/03/21 11:28:52;;;;;;;41.88;6.40;;;7.70;78.10;;;;;;5003254;28;20034;-81
2021/03/21 11:31:41;;;;;;;34.95;6.07;;;7.80;77.60;;;;;;4951863;28;20091;-82
2021/03/21 11:34:14;;;;;;;35.38;6.25;;;8.00;77.80;;;;;;5005927;28;20030;-80
2021/03/21 11:36:40;;;;;;;37.50;5.95;;;8.20;77.30;;;;;;5011946;28;20106;-80
2021/03/21 11:39:27;;;;;;;35.13;6.15;;;8.30;76.80;;;;;;4998327;28;20120;-80
2021/03/21 11:41:54;;;;;;;45.13;5.93;;;8.40;76.20;;;;;;5019026;28;20042;-81
2021/03/21 11:44:26;;;;;;;33.92;5.30;;;8.50;76.60;;;;;;4987627;28;20041;-81
2021/03/21 11:46:55;;;;;;;42.17;7.03;;;8.50;75.70;;;;;;5020644;28;20141;-81
2021/03/21 11:49:24;;;;;;;40.88;6.50;;;8.40;76.60;;;;;;5019113;28;20480;-81
2021/03/21 11:52:01;;;;;;;51.13;7.53;;;8.40;76.40;;;;;;5020746;28;20037;-80
2021/03/21 11:54:29;;;;;;;34.67;5.68;;;8.40;75.30;;;;;;5018386;28;20030;-82
2021/03/21 11:57:25;;;;;;;45.78;6.50;;;8.40;76.00;;;;;;5028525;28;20041;-78
2021/03/21 12:00:12;;;;;;;41.42;6.80;;;8.40;74.90;;;;;;5021732;28;20069;-83
2021/03/21 12:02:47;;;;;;;36.95;6.03;;;8.40;75.10;;;;;;5022324;28;20464;-82
2021/03/21 12:05:20;;;;;;;37.45;6.47;;;8.40;75.50;;;;;;5021414;28;20053;-83
2021/03/21 12:07:47;;;;;;;;;;;8.40;74.80;;;;;;5019898;28;20045;-79
2021/03/21 12:10:27;;;;;;;34.20;5.20;;;8.40;71.80;;;;;;5022221;28;19917;-81
2021/03/21 12:12:53;;;;;;;43.00;5.68;;;8.50;75.10;;;;;;5017015;28;20033;-82
2021/03/21 12:15:25;;;;;;;45.42;6.90;;;8.50;73.70;;;;;;5003049;28;20049;-81
2021/03/21 12:18:17;;;;;;;39.72;5.40;;;8.40;73.00;;;;;;5022607;28;20481;-83
2021/03/21 12:20:47;;;;;;;44.15;6.10;;;8.30;72.10;;;;;;5027373;28;20323;-82
2021/03/21 12:24:01;;;;;;;39.92;6.38;;;8.30;74.40;;;;;;5020267;28;20285;-82
2021/03/21 12:26:33;;;;;;;40.97;6.85;;;8.40;73.50;;;;;;4956587;28;20532;-82
2021/03/21 12:29:24;;;;;;;36.35;5.85;;;8.50;75.00;;;;;;4942647;28;20082;-82
2021/03/21 12:31:56;;;;;;;42.58;5.68;;;8.60;74.80;;;;;;5001651;28;20285;-80
2021/03/21 12:34:50;;;;;;;36.17;5.72;;;8.60;74.20;;;;;;5045982;28;20053;-82
2021/03/21 12:37:18;;;;;;;34.80;6.30;;;8.50;73.40;;;;;;5020342;28;20181;-82
2021/03/21 12:39:50;;;;;;;36.88;6.05;;;8.40;73.60;;;;;;5018607;28;20048;-81
2021/03/21 12:42:27;;;;;;;26.10;5.13;;;8.40;73.90;;;;;;5016543;28;20054;-80
2021/03/21 12:45:10;;;;;;;31.88;5.50;;;8.40;73.30;;;;;;5022269;28;20083;-82
2021/03/21 12:47:47;;;;;;;38.33;5.63;;;8.40;73.30;;;;;;5018942;28;20057;-81
2021/03/21 12:50:35;;;;;;;38.92;5.88;;;8.40;73.80;;;;;;5017917;28;20041;-79
2021/03/21 12:53:09;;;;;;;29.25;4.97;;;8.50;73.90;;;;;;5032720;28;20029;-81
2021/03/21 12:55:36;;;;;;;31.67;5.50;;;8.50;73.80;;;;;;5005603;28;20041;-80
2021/03/21 12:58:02;;;;;;;45.83;6.13;;;8.40;73.40;;;;;;5015963;28;20129;-81
2021/03/21 13:00:31;;;;;;;29.45;5.15;;;8.50;73.60;;;;;;5001785;28;20045;-79
2021/03/21 13:02:58;;;;;;;33.33;5.30;;;8.50;73.40;;;;;;5023357;28;20074;-81
2021/03/21 13:05:37;;;;;;;46.00;6.38;;;8.40;73.20;;;;;;5025709;28;20404;-80
2021/03/21 13:08:04;;;;;;;39.80;6.25;;;8.40;72.20;;;;;;5021879;28;20060;-81
2021/03/21 13:10:33;;;;;;;34.45;5.20;;;8.30;73.50;;;;;;5005977;28;20065;-82
2021/03/21 13:13:00;;;;;;;42.38;7.10;;;8.30;73.60;;;;;;5006861;28;20049;-84
2021/03/21 13:15:27;;;;;;;39.47;5.93;;;8.40;73.70;;;;;;5039820;28;20538;-82
2021/03/21 13:17:53;;;;;;;35.63;5.07;;;8.40;73.60;;;;;;5028809;28;20060;-81
2021/03/21 13:20:21;;;;;;;50.53;6.30;;;8.50;73.30;;;;;;5008510;28;20372;-80
2021/03/21 13:22:47;;;;;;;39.22;5.95;;;8.50;73.00;;;;;;5008186;28;20042;-80
2021/03/21 13:25:24;;;;;;;34.88;5.78;;;8.60;73.60;;;;;;5020956;28;20046;-81
2021/03/21 13:27:55;;;;;;;39.13;5.72;;;8.50;73.00;;;;;;5031254;28;20040;-81
2021/03/21 13:30:23;;;;;;;45.13;6.60;;;8.50;72.70;;;;;;5022718;28;20089;-80
2021/03/21 13:32:49;;;;;;;38.88;6.03;;;8.50;72.60;;;;;;5012105;28;20128;-81
2021/03/21 13:35:16;;;;;;;35.65;6.10;;;8.30;71.80;;;;;;4986858;28;20042;-81
2021/03/21 13:37:41;;;;;;;41.00;6.72;;;8.10;72.10;;;;;;5027804;28;20491;-80
2021/03/21 13:40:10;;;;;;;30.73;5.60;;;8.00;72.50;;;;;;4997303;28;20060;-81